Time;durP1;ratioP1;P1;durP2;ratioP2;P2;SDS_P1;SDS_P2;PMS_P1;PMS_P2;Temp;Humidity;BMP_temperature;BMP_pressure;BME280_temperature;BME280_humidity;BME280_pressure;Samples;Min_cycle;Max_cycle;Signal;HPM_P1;HPM_P2
2023/10/22 00:00:33;;;;;;;;;;;;;;;;;;6175038;23;19924;-90
2023/10/22 00:03:00;;;;;;;;;;;;;;;;;;6173998;23;20306;-90
2023/10/22 00:05:30;;;;;;;;;;;;;;;;;;6177106;23;19951;-90
2023/10/22 00:07:56;;;;;;;;;;;;;;;;;;6149745;23;19920;-90
2023/10/22 00:10:24;;;;;;;;;;;;;;;;;;6147404;23;19926;-91
2023/10/22 00:12:51;;;;;;;;;;;;;;;;;;6173464;23;19978;-90
2023/10/22 00:15:18;;;;;;;;;;;;;;;;;;6151366;23;19986;-90
2023/10/22 00:17:44;;;;;;;;;;;;;;;;;;6148045;23;19919;-91
2023/10/22 00:20:12;;;;;;;;;;;;;;;;;;6149554;23;19942;-91
2023/10/22 00:22:39;;;;;;;;;;;;;;;;;;6175562;23;19951;-90
2023/10/22 00:25:07;;;;;;;;;;;;;;;;;;6175554;23;20372;-90
2023/10/22 00:27:34;;;;;;;;;;;;;;;;;;6174575;23;19924;-90
2023/10/22 00:30:02;;;;;;;;;;;;;;;;;;6173000;23;20368;-90
2023/10/22 00:32:29;;;;;;;;;;;;;;;;;;6203060;23;19916;-90
2023/10/22 00:35:05;;;;;;;;;;;;;;;;;;6196116;23;20325;-90
2023/10/22 00:37:32;;;;;;;;;;;;;;;;;;6150880;23;19923;-90
2023/10/22 00:39:59;;;;;;;;;;;;;;;;;;6172914;23;19939;-91
2023/10/22 00:42:26;;;;;;;;;;;;;;;;;;6150225;23;19943;-90
2023/10/22 00:44:54;;;;;;;;;;;;;;;;;;6149162;23;19991;-90
2023/10/22 00:47:21;;;;;;;;;;;;;;;;;;6177041;23;19958;-90
2023/10/22 00:49:48;;;;;;;;;;;;;;;;;;6173578;23;19923;-91
2023/10/22 00:52:15;;;;;;;;;;;;;;;;;;6150770;23;19916;-90
2023/10/22 00:54:41;;;;;;;;;;;;;;;;;;6172796;23;19920;-90
2023/10/22 00:57:09;;;;;;;;;;;;;;;;;;6150440;23;19942;-90
2023/10/22 00:59:35;;;;;;;;;;;;;;;;;;6202851;23;19926;-90
2023/10/22 01:02:03;;;;;;;;;;;;;;;;;;6198105;23;20011;-90
2023/10/22 01:04:30;;;;;;;;;;;;;;;;;;6150301;23;19920;-90
2023/10/22 01:06:57;;;;;;;;;;;;;;;;;;6169592;23;19991;-90
2023/10/22 01:09:24;;;;;;;;;;;;;;;;;;6174527;23;19952;-89
2023/10/22 01:11:50;;;;;;;;;;;;;;;;;;6145626;23;19923;-90
2023/10/22 01:14:16;;;;;;;;;;;;;;;;;;6174875;23;19994;-90
2023/10/22 01:16:45;;;;;;;;;;;;;;;;;;6173899;23;20023;-90
2023/10/22 01:19:11;;;;;;;;;;;;;;;;;;6201376;23;19926;-90
2023/10/22 01:21:38;;;;;;;;;;;;;;;;;;6151056;23;19928;-90
2023/10/22 01:24:25;;;;;;;;;;;;;;;;;;6177776;23;19954;-90
2023/10/22 01:26:52;;;;;;;;;;;;;;;;;;6172413;23;20003;-91
2023/10/22 01:29:20;;;;;;;;;;;;;;;;;;6202400;23;19924;-91
2023/10/22 01:31:47;;;;;;;;;;;;;;;;;;6150940;23;19920;-91
2023/10/22 01:34:14;;;;;;;;;;;;;;;;;;6174946;23;20245;-91
2023/10/22 01:36:41;;;;;;;;;;;;;;;;;;6170451;23;19920;-91
2023/10/22 01:39:14;;;;;;;;;;;;;;;;;;6174053;23;19916;-91
2023/10/22 01:41:54;;;;;;;;;;;;;;;;;;6172214;23;19932;-91
2023/10/22 01:44:21;;;;;;;;;;;;;;;;;;6150477;23;19927;-90
2023/10/22 01:46:47;;;;;;;;;;;;;;;;;;6147348;23;19924;-90
2023/10/22 01:49:16;;;;;;;;;;;;;;;;;;6175949;23;19923;-90
2023/10/22 01:51:47;;;;;;;;;;;;;;;;;;6171572;23;19916;-90
2023/10/22 01:54:15;;;;;;;;;;;;;;;;;;6174980;23;20284;-90
2023/10/22 01:56:42;;;;;;;;;;;;;;;;;;6172806;23;19920;-90
2023/10/22 01:59:28;;;;;;;;;;;;;;;;;;6174662;23;20309;-90
2023/10/22 02:02:10;;;;;;;;;;;;;;;;;;6177630;23;19926;-90
2023/10/22 02:04:37;;;;;;;;;;;;;;;;;;6150921;23;20325;-92
2023/10/22 02:07:05;;;;;;;;;;;;;;;;;;6147775;23;19920;-91
2023/10/22 02:09:32;;;;;;;;;;;;;;;;;;6200870;23;20341;-91
2023/10/22 02:11:58;;;;;;;;;;;;;;;;;;6148575;23;19927;-91
2023/10/22 02:14:25;;;;;;;;;;;;;;;;;;6176101;23;19920;-90
2023/10/22 02:16:53;;;;;;;;;;;;;;;;;;6149823;23;19920;-90
2023/10/22 02:19:23;;;;;;;;;;;;;;;;;;6202163;23;19916;-92
2023/10/22 02:21:53;;;;;;;;;;;;;;;;;;6152145;23;20252;-92
2023/10/22 02:24:19;;;;;;;;;;;;;;;;;;6178175;23;19916;-91
2023/10/22 02:26:46;;;;;;;;;;;;;;;;;;6197334;23;19920;-91
2023/10/22 02:29:13;;;;;;;;;;;;;;;;;;6151615;23;20361;-91
2023/10/22 02:31:42;;;;;;;;;;;;;;;;;;6151411;23;20004;-91
2023/10/22 02:34:09;;;;;;;;;;;;;;;;;;6178666;23;19920;-91
2023/10/22 02:36:36;;;;;;;;;;;;;;;;;;6152626;23;19919;-90
2023/10/22 02:39:04;;;;;;;;;;;;;;;;;;6173596;23;19946;-91
2023/10/22 02:41:32;;;;;;;;;;;;;;;;;;6175519;23;19924;-90
2023/10/22 02:43:58;;;;;;;;;;;;;;;;;;6150933;23;20006;-90
2023/10/22 02:46:26;;;;;;;;;;;;;;;;;;6177157;23;20337;-91
2023/10/22 02:49:11;;;;;;;;;;;;;;;;;;6179890;23;19970;-90
2023/10/22 02:51:40;;;;;;;;;;;;;;;;;;6175909;23;19966;-91
2023/10/22 02:54:07;;;;;;;;;;;;;;;;;;6153205;23;19931;-90
2023/10/22 02:56:34;;;;;;;;;;;;;;;;;;6177036;23;20230;-91
2023/10/22 02:59:00;;;;;;;;;;;;;;;;;;6148924;23;20444;-90
2023/10/22 03:01:31;;;;;;;;;;;;;;;;;;6178055;23;19924;-91
2023/10/22 03:03:58;;;;;;;;;;;;;;;;;;6173062;23;19982;-90
2023/10/22 03:06:25;;;;;;;;;;;;;;;;;;6174955;23;19916;-91
2023/10/22 03:08:51;;;;;;;;;;;;;;;;;;6172822;23;19920;-91
2023/10/22 03:11:21;;;;;;;;;;;;;;;;;;6177133;23;19927;-91
2023/10/22 03:13:47;;;;;;;;;;;;;;;;;;6172486;23;19927;-91
2023/10/22 03:16:14;;;;;;;;;;;;;;;;;;6175512;23;19920;-91
2023/10/22 03:18:40;;;;;;;;;;;;;;;;;;6150556;23;19920;-90
2023/10/22 03:21:24;;;;;;;;;;;;;;;;;;6202807;23;19975;-90
2023/10/22 03:23:51;;;;;;;;;;;;;;;;;;6172581;23;19920;-91
2023/10/22 03:26:22;;;;;;;;;;;;;;;;;;6179308;23;19920;-92
2023/10/22 03:28:51;;;;;;;;;;;;;;;;;;6173875;23;19920;-91
2023/10/22 03:31:21;;;;;;;;;;;;;;;;;;6153208;23;20292;-90
2023/10/22 03:33:51;;;;;;;;;;;;;;;;;;6175700;23;19920;-90
2023/10/22 03:36:19;;;;;;;;;;;;;;;;;;6151228;23;19920;-90
2023/10/22 03:38:46;;;;;;;;;;;;;;;;;;6171352;23;20408;-90
2023/10/22 03:41:12;;;;;;;;;;;;;;;;;;6177660;23;20383;-90
2023/10/22 03:43:38;;;;;;;;;;;;;;;;;;6176836;23;19955;-91
2023/10/22 03:46:05;;;;;;;;;;;;;;;;;;6148255;23;19920;-92
2023/10/22 03:48:32;;;;;;;;;;;;;;;;;;6174902;23;19928;-91
2023/10/22 03:50:59;;;;;;;;;;;;;;;;;;6173398;23;19994;-90
2023/10/22 03:53:26;;;;;;;;;;;;;;;;;;6202631;23;19954;-90
2023/10/22 03:55:52;;;;;;;;;;;;;;;;;;6172363;23;20015;-91
2023/10/22 03:58:19;;;;;;;;;;;;;;;;;;6150429;23;19951;-91
2023/10/22 04:00:48;;;;;;;;;;;;;;;;;;6174591;23;19931;-90
2023/10/22 04:03:14;;;;;;;;;;;;;;;;;;6173837;23;19926;-90
2023/10/22 04:05:45;;;;;;;;;;;;;;;;;;6199130;23;19916;-90
2023/10/22 04:08:12;;;;;;;;;;;;;;;;;;6150392;23;19919;-90
2023/10/22 04:10:38;;;;;;;;;;;;;;;;;;6151024;23;20280;-89
2023/10/22 04:13:05;;;;;;;;;;;;;;;;;;6172597;23;19919;-89
2023/10/22 04:15:48;;;;;;;;;;;;;;;;;;6200841;23;19923;-89
2023/10/22 04:18:15;;;;;;;;;;;;;;;;;;6177274;23;19982;-89
2023/10/22 04:20:42;;;;;;;;;;;;;;;;;;6174717;23;19924;-89
2023/10/22 04:23:12;;;;;;;;;;;;;;;;;;6173049;23;19920;-91
2023/10/22 04:25:45;;;;;;;;;;;;;;;;;;6149632;23;19933;-90
2023/10/22 04:28:12;;;;;;;;;;;;;;;;;;6174811;23;19923;-90
2023/10/22 04:30:39;;;;;;;;;;;;;;;;;;6176311;23;19919;-90
2023/10/22 04:33:21;;;;;;;;;;;;;;;;;;6201970;23;19920;-90
2023/10/22 04:35:47;;;;;;;;;;;;;;;;;;6149441;23;19955;-90
2023/10/22 04:38:14;;;;;;;;;;;;;;;;;;6150143;23;20023;-90
2023/10/22 04:40:41;;;;;;;;;;;;;;;;;;6174274;23;19935;-91
2023/10/22 04:43:09;;;;;;;;;;;;;;;;;;6199906;23;20256;-91
2023/10/22 04:45:37;;;;;;;;;;;;;;;;;;6174585;23;19920;-90
2023/10/22 04:48:07;;;;;;;;;;;;;;;;;;6171361;23;19920;-90
2023/10/22 04:50:34;;;;;;;;;;;;;;;;;;6176445;23;19956;-89
2023/10/22 04:53:10;;;;;;;;;;;;;;;;;;6202576;23;19930;-90
2023/10/22 04:55:46;;;;;;;;;;;;;;;;;;6198294;23;20001;-90
2023/10/22 04:58:13;;;;;;;;;;;;;;;;;;6151265;23;20399;-90
2023/10/22 05:00:40;;;;;;;;;;;;;;;;;;6150938;23;19920;-90
2023/10/22 05:03:09;;;;;;;;;;;;;;;;;;6151246;23;19998;-90
2023/10/22 05:05:37;;;;;;;;;;;;;;;;;;6174977;23;19952;-90
2023/10/22 05:08:05;;;;;;;;;;;;;;;;;;6172744;23;19919;-90
2023/10/22 05:10:32;;;;;;;;;;;;;;;;;;6174783;23;20413;-90
2023/10/22 05:12:59;;;;;;;;;;;;;;;;;;6172839;23;20264;-90
2023/10/22 05:15:26;;;;;;;;;;;;;;;;;;6172788;23;20230;-90
2023/10/22 05:17:55;;;;;;;;;;;;;;;;;;6147836;23;19920;-90
2023/10/22 05:20:22;;;;;;;;;;;;;;;;;;6150627;23;19994;-90
2023/10/22 05:22:50;;;;;;;;;;;;;;;;;;6172823;23;19947;-90
2023/10/22 05:25:20;;;;;;;;;;;;;;;;;;6175396;23;20419;-91
2023/10/22 05:28:06;;;;;;;;;;;;;;;;;;6179451;23;19966;-90
2023/10/22 05:30:33;;;;;;;;;;;;;;;;;;6175352;23;20613;-91
2023/10/22 05:33:01;;;;;;;;;;;;;;;;;;6200181;23;19930;-91
2023/10/22 05:35:28;;;;;;;;;;;;;;;;;;6150384;23;19924;-90
2023/10/22 05:37:54;;;;;;;;;;;;;;;;;;6173472;23;19939;-90
2023/10/22 05:40:37;;;;;;;;;;;;;;;;;;6178527;23;20036;-91
2023/10/22 05:43:04;;;;;;;;;;;;;;;;;;6173012;23;20337;-90
2023/10/22 05:45:32;;;;;;;;;;;;;;;;;;6174467;23;20013;-90
2023/10/22 05:47:59;;;;;;;;;;;;;;;;;;6176817;23;20304;-91
2023/10/22 05:50:26;;;;;;;;;;;;;;;;;;6177540;23;19927;-90
2023/10/22 05:53:13;;;;;;;;;;;;;;;;;;6177960;23;19923;-90
2023/10/22 05:55:39;;;;;;;;;;;;;;;;;;6176908;23;19920;-92
2023/10/22 05:58:09;;;;;;;;;;;;;;;;;;6177981;23;20259;-90
2023/10/22 06:00:38;;;;;;;;;;;;;;;;;;6152670;23;20404;-90
2023/10/22 06:03:08;;;;;;;;;;;;;;;;;;6152336;23;19923;-90
2023/10/22 06:05:35;;;;;;;;;;;;;;;;;;6177265;23;19927;-90
2023/10/22 06:08:02;;;;;;;;;;;;;;;;;;6175820;23;19927;-90
2023/10/22 06:10:30;;;;;;;;;;;;;;;;;;6154133;23;20368;-90
2023/10/22 06:12:57;;;;;;;;;;;;;;;;;;6175611;23;20344;-90
2023/10/22 06:15:24;;;;;;;;;;;;;;;;;;6202683;23;19943;-91
2023/10/22 06:17:51;;;;;;;;;;;;;;;;;;6172893;23;19975;-91
2023/10/22 06:20:21;;;;;;;;;;;;;;;;;;6170961;23;19986;-91
2023/10/22 06:22:48;;;;;;;;;;;;;;;;;;6173163;23;19948;-91
2023/10/22 06:25:15;;;;;;;;;;;;;;;;;;6152710;23;19920;-90
2023/10/22 06:27:42;;;;;;;;;;;;;;;;;;6173296;23;20333;-91
2023/10/22 06:30:10;;;;;;;;;;;;;;;;;;6176609;23;19920;-91
2023/10/22 06:32:37;;;;;;;;;;;;;;;;;;6204514;23;19920;-90
2023/10/22 06:35:07;;;;;;;;;;;;;;;;;;6152296;23;19916;-90
2023/10/22 06:37:34;;;;;;;;;;;;;;;;;;6181279;23;19966;-90
2023/10/22 06:40:01;;;;;;;;;;;;;;;;;;6175159;23;19973;-91
2023/10/22 06:42:29;;;;;;;;;;;;;;;;;;6179058;23;19920;-90
2023/10/22 06:44:56;;;;;;;;;;;;;;;;;;6201399;23;19919;-90
2023/10/22 06:47:23;;;;;;;;;;;;;;;;;;6152013;23;19920;-92
2023/10/22 06:49:51;;;;;;;;;;;;;;;;;;6172874;23;19924;-92
2023/10/22 06:52:17;;;;;;;;;;;;;;;;;;6173386;23;20007;-91
2023/10/22 06:54:45;;;;;;;;;;;;;;;;;;6175052;23;19927;-91
2023/10/22 06:57:15;;;;;;;;;;;;;;;;;;6179522;23;19962;-91
2023/10/22 06:59:42;;;;;;;;;;;;;;;;;;6171656;23;19916;-91
2023/10/22 07:02:09;;;;;;;;;;;;;;;;;;6176516;23;20328;-91
2023/10/22 07:04:35;;;;;;;;;;;;;;;;;;6153990;23;19926;-90
2023/10/22 07:07:02;;;;;;;;;;;;;;;;;;6175504;23;19919;-90
2023/10/22 07:09:29;;;;;;;;;;;;;;;;;;6152336;23;19920;-90
2023/10/22 07:11:56;;;;;;;;;;;;;;;;;;6172286;23;19947;-89
2023/10/22 07:14:23;;;;;;;;;;;;;;;;;;6178115;23;19923;-90
2023/10/22 07:16:50;;;;;;;;;;;;;;;;;;6198570;23;20390;-89
2023/10/22 07:19:16;;;;;;;;;;;;;;;;;;6174556;23;19920;-90
2023/10/22 07:21:43;;;;;;;;;;;;;;;;;;6172395;23;20710;-91
2023/10/22 07:24:13;;;;;;;;;;;;;;;;;;6176209;23;20085;-91
2023/10/22 07:26:40;;;;;;;;;;;;;;;;;;6176758;23;19994;-90
2023/10/22 07:29:07;;;;;;;;;;;;;;;;;;6177084;23;19994;-91
2023/10/22 07:31:34;;;;;;;;;;;;;;;;;;6150183;23;19970;-89
2023/10/22 07:34:02;;;;;;;;;;;;;;;;;;6148371;23;20079;-91
2023/10/22 07:36:29;;;;;;;;;;;;;;;;;;6174459;23;19926;-90
2023/10/22 07:38:54;;;;;;;;;;;;;;;;;;6175075;23;19920;-90
2023/10/22 07:41:23;;;;;;;;;;;;;;;;;;6149433;23;20678;-90
2023/10/22 07:43:51;;;;;;;;;;;;;;;;;;6174738;23;19942;-89
2023/10/22 07:46:18;;;;;;;;;;;;;;;;;;6176061;23;19924;-90
2023/10/22 07:48:45;;;;;;;;;;;;;;;;;;6168810;23;20336;-90
2023/10/22 07:51:12;;;;;;;;;;;;;;;;;;6175529;23;19951;-91
2023/10/22 07:53:42;;;;;;;;;;;;;;;;;;6175703;23;19986;-91
2023/10/22 07:56:10;;;;;;;;;;;;;;;;;;6202660;23;19919;-91
2023/10/22 07:58:50;;;;;;;;;;;;;;;;;;6198811;23;20549;-90
2023/10/22 08:01:21;;;;;;;;;;;;;;;;;;6201183;23;20331;-91
2023/10/22 08:03:50;;;;;;;;;;;;;;;;;;6174186;23;19926;-90
2023/10/22 08:06:17;;;;;;;;;;;;;;;;;;6174745;23;20296;-92
2023/10/22 08:08:43;;;;;;;;;;;;;;;;;;6148347;23;19919;-91
2023/10/22 08:11:09;;;;;;;;;;;;;;;;;;6150475;23;20020;-91
2023/10/22 08:13:38;;;;;;;;;;;;;;;;;;6201045;23;20366;-91
2023/10/22 08:16:05;;;;;;;;;;;;;;;;;;6148659;23;20305;-90
2023/10/22 08:18:32;;;;;;;;;;;;;;;;;;6147826;23;19926;-89
2023/10/22 08:21:00;;;;;;;;;;;;;;;;;;6174661;23;20952;-89
2023/10/22 08:23:28;;;;;;;;;;;;;;;;;;6176571;23;19924;-89
2023/10/22 08:25:55;;;;;;;;;;;;;;;;;;6150962;23;20356;-88
2023/10/22 08:28:22;;;;;;;;;;;;;;;;;;6179510;23;19927;-89
2023/10/22 08:30:48;;;;;;;;;;;;;;;;;;6151267;23;19970;-88
2023/10/22 08:33:15;;;;;;;;;;;;;;;;;;6178080;23;19920;-89
2023/10/22 08:35:42;;;;;;;;;;;;;;;;;;6173483;23;20256;-89
2023/10/22 08:38:10;;;;;;;;;;;;;;;;;;6177919;23;19970;-89
2023/10/22 08:40:37;;;;;;;;;;;;;;;;;;6174980;23;19974;-88
2023/10/22 08:43:04;;;;;;;;;;;;;;;;;;6176449;23;19920;-89
2023/10/22 08:45:32;;;;;;;;;;;;;;;;;;6175536;23;20238;-88
2023/10/22 08:47:59;;;;;;;;;;;;;;;;;;6148699;23;20300;-90
2023/10/22 08:50:26;;;;;;;;;;;;;;;;;;6151643;23;20336;-89
2023/10/22 08:52:53;;;;;;;;;;;;;;;;;;6175084;23;19927;-89
2023/10/22 08:55:21;;;;;;;;;;;;;;;;;;6175858;23;19970;-89
2023/10/22 08:57:48;;;;;;;;;;;;;;;;;;6199236;23;19924;-89
2023/10/22 09:00:15;;;;;;;;;;;;;;;;;;6199965;23;19924;-88
2023/10/22 09:02:42;;;;;;;;;;;;;;;;;;6175143;23;19923;-88
2023/10/22 09:05:14;;;;;;;;;;;;;;;;;;6200416;23;19926;-89
2023/10/22 09:07:44;;;;;;;;;;;;;;;;;;6174936;23;19920;-88
2023/10/22 09:10:11;;;;;;;;;;;;;;;;;;6174552;23;19920;-89
2023/10/22 09:12:38;;;;;;;;;;;;;;;;;;6180007;23;20402;-89
2023/10/22 09:15:06;;;;;;;;;;;;;;;;;;6203843;23;19966;-89
2023/10/22 09:17:33;;;;;;;;;;;;;;;;;;6179043;23;19923;-89
2023/10/22 09:20:00;;;;;;;;;;;;;;;;;;6171469;23;20254;-90
2023/10/22 09:22:28;;;;;;;;;;;;;;;;;;6153568;23;19924;-89
2023/10/22 09:24:55;;;;;;;;;;;;;;;;;;6174709;23;19920;-89
2023/10/22 09:27:22;;;;;;;;;;;;;;;;;;6179417;23;19947;-89
2023/10/22 09:29:50;;;;;;;;;;;;;;;;;;6202061;23;19920;-89
2023/10/22 09:32:18;;;;;;;;;;;;;;;;;;6175740;23;19931;-90
2023/10/22 09:34:45;;;;;;;;;;;;;;;;;;6147778;23;19920;-89
2023/10/22 09:37:12;;;;;;;;;;;;;;;;;;6151865;23;19919;-89
2023/10/22 09:39:38;;;;;;;;;;;;;;;;;;6154066;23;19944;-89
2023/10/22 09:42:24;;;;;;;;;;;;;;;;;;6183541;23;19920;-89
2023/10/22 09:45:06;;;;;;;;;;;;;;;;;;6203725;23;19959;-89
2023/10/22 09:47:34;;;;;;;;;;;;;;;;;;6178868;23;19920;-89
2023/10/22 09:50:00;;;;;;;;;;;;;;;;;;6148482;23;20484;-89
2023/10/22 09:52:26;;;;;;;;;;;;;;;;;;6150940;23;19924;-89
2023/10/22 09:54:54;;;;;;;;;;;;;;;;;;6176338;23;20081;-89
2023/10/22 09:57:24;;;;;;;;;;;;;;;;;;6179590;23;19920;-90
2023/10/22 09:59:51;;;;;;;;;;;;;;;;;;6176639;23;19986;-88
2023/10/22 10:02:30;;;;;;;;;;;;;;;;;;6181602;23;20313;-90
2023/10/22 10:04:58;;;;;;;;;;;;;;;;;;6150424;23;19982;-90
2023/10/22 10:07:24;;;;;;;;;;;;;;;;;;6179614;23;20310;-90
2023/10/22 10:09:52;;;;;;;;;;;;;;;;;;6176041;23;19970;-90
2023/10/22 10:12:24;;;;;;;;;;;;;;;;;;6179050;23;19966;-89
2023/10/22 10:14:52;;;;;;;;;;;;;;;;;;6175483;23;19973;-90
2023/10/22 10:17:19;;;;;;;;;;;;;;;;;;6179356;23;19961;-89
2023/10/22 10:19:51;;;;;;;;;;;;;;;;;;6172498;23;19919;-89
2023/10/22 10:22:18;;;;;;;;;;;;;;;;;;6178353;23;19991;-90
2023/10/22 10:24:45;;;;;;;;;;;;;;;;;;6149452;23;19947;-89
2023/10/22 10:27:13;;;;;;;;;;;;;;;;;;6153425;23;19919;-89
2023/10/22 10:29:40;;;;;;;;;;;;;;;;;;6152819;23;19955;-90
2023/10/22 10:32:09;;;;;;;;;;;;;;;;;;6178179;23;20121;-87
2023/10/22 10:34:41;;;;;;;;;;;;;;;;;;6207272;23;19958;-88
2023/10/22 10:37:08;;;;;;;;;;;;;;;;;;6180255;23;20370;-88
2023/10/22 10:39:36;;;;;;;;;;;;;;;;;;6152903;23;19990;-88
2023/10/22 10:42:03;;;;;;;;;;;;;;;;;;6172005;23;19931;-90
2023/10/22 10:44:30;;;;;;;;;;;;;;;;;;6177908;23;19932;-89
2023/10/22 10:46:57;;;;;;;;;;;;;;;;;;6177711;23;19924;-88
2023/10/22 10:49:24;;;;;;;;;;;;;;;;;;6177712;23;20274;-88
2023/10/22 10:51:51;;;;;;;;;;;;;;;;;;6173314;23;19930;-88
2023/10/22 10:54:18;;;;;;;;;;;;;;;;;;6178534;23;19923;-88
2023/10/22 10:56:46;;;;;;;;;;;;;;;;;;6177608;23;19920;-89
2023/10/22 10:59:13;;;;;;;;;;;;;;;;;;6177244;23;19920;-88
2023/10/22 11:01:39;;;;;;;;;;;;;;;;;;6177593;23;19924;-88
2023/10/22 11:04:07;;;;;;;;;;;;;;;;;;6178705;23;20408;-88
2023/10/22 11:06:54;;;;;;;;;;;;;;;;;;6173259;23;19920;-88
2023/10/22 11:09:21;;;;;;;;;;;;;;;;;;6175573;23;19919;-88
2023/10/22 11:11:51;;;;;;;;;;;;;;;;;;6173982;23;20244;-88
2023/10/22 11:14:38;;;;;;;;;;;;;;;;;;6177936;23;19924;-89
2023/10/22 11:17:21;;;;;;;;;;;;;;;;;;6178307;23;19990;-88
2023/10/22 11:19:47;;;;;;;;;;;;;;;;;;6147763;23;19924;-89
2023/10/22 11:22:20;;;;;;;;;;;;;;;;;;6203849;23;19986;-89
2023/10/22 11:24:46;;;;;;;;;;;;;;;;;;6173256;23;19923;-88
2023/10/22 11:27:15;;;;;;;;;;;;;;;;;;6201731;23;19919;-89
2023/10/22 11:29:41;;;;;;;;;;;;;;;;;;6150368;23;19919;-88
2023/10/22 11:32:09;;;;;;;;;;;;;;;;;;6153238;23;19920;-88
2023/10/22 11:34:35;;;;;;;;;;;;;;;;;;6176465;23;19920;-88
2023/10/22 11:37:02;;;;;;;;;;;;;;;;;;6151254;23;19926;-88
2023/10/22 11:39:29;;;;;;;;;;;;;;;;;;6175011;23;20416;-88
2023/10/22 11:42:11;;;;;;;;;;;;;;;;;;6199585;23;19948;-89
2023/10/22 11:44:53;;;;;;;;;;;;;;;;;;6174723;23;19926;-88
2023/10/22 11:47:20;;;;;;;;;;;;;;;;;;6201094;23;19919;-89
2023/10/22 11:49:48;;;;;;;;;;;;;;;;;;6184365;23;19934;-89
2023/10/22 11:52:15;;;;;;;;;;;;;;;;;;6163331;23;19951;-89
2023/10/22 11:54:44;;;;;;;;;;;;;;;;;;6172909;23;19923;-89
2023/10/22 11:57:10;;;;;;;;;;;;;;;;;;6174751;23;20356;-88
2023/10/22 11:59:38;;;;;;;;;;;;;;;;;;6175617;23;19921;-88
2023/10/22 12:02:08;;;;;;;;;;;;;;;;;;6202573;23;20325;-88
2023/10/22 12:04:34;;;;;;;;;;;;;;;;;;6202062;23;19923;-88
2023/10/22 12:07:00;;;;;;;;;;;;;;;;;;6168693;23;19920;-89
2023/10/22 12:09:28;;;;;;;;;;;;;;;;;;6172479;23;20019;-88
2023/10/22 12:12:08;;;;;;;;;;;;;;;;;;6199413;23;20046;-88
2023/10/22 12:14:38;;;;;;;;;;;;;;;;;;6150649;23;19927;-88
2023/10/22 12:17:06;;;;;;;;;;;;;;;;;;6149839;23;19916;-88
2023/10/22 12:19:33;;;;;;;;;;;;;;;;;;6201917;23;20324;-88
2023/10/22 12:22:01;;;;;;;;;;;;;;;;;;6169819;23;20043;-89
2023/10/22 12:24:26;;;;;;;;;;;;;;;;;;6173419;23;20341;-88
2023/10/22 12:27:02;;;;;;;;;;;;;;;;;;6199891;23;20226;-89
2023/10/22 12:29:32;;;;;;;;;;;;;;;;;;6177419;23;19927;-87
2023/10/22 12:31:59;;;;;;;;;;;;;;;;;;6171911;23;19936;-88
2023/10/22 12:34:27;;;;;;;;;;;;;;;;;;6174064;23;19930;-88
2023/10/22 12:36:55;;;;;;;;;;;;;;;;;;6174469;23;20329;-88
2023/10/22 12:39:22;;;;;;;;;;;;;;;;;;6152006;23;20321;-89
2023/10/22 12:41:48;;;;;;;;;;;;;;;;;;6171567;23;19976;-89
2023/10/22 12:44:29;;;;;;;;;;;;;;;;;;6200343;23;19919;-89
2023/10/22 12:46:55;;;;;;;;;;;;;;;;;;6150573;23;20137;-88
2023/10/22 12:49:22;;;;;;;;;;;;;;;;;;6151496;23;19924;-88
2023/10/22 12:51:49;;;;;;;;;;;;;;;;;;6172984;23;19916;-89
2023/10/22 12:54:16;;;;;;;;;;;;;;;;;;6151929;23;19916;-88
2023/10/22 12:56:43;;;;;;;;;;;;;;;;;;6174410;23;19920;-88
2023/10/22 12:59:11;;;;;;;;;;;;;;;;;;6177791;23;20006;-89
2023/10/22 13:01:41;;;;;;;;;;;;;;;;;;6177066;23;19964;-88
2023/10/22 13:04:09;;;;;;;;;;;;;;;;;;6202445;23;19955;-88
2023/10/22 13:06:39;;;;;;;;;;;;;;;;;;6175641;23;19927;-88
2023/10/22 13:09:07;;;;;;;;;;;;;;;;;;6148024;23;19916;-88
2023/10/22 13:11:37;;;;;;;;;;;;;;;;;;6174342;23;19920;-88
2023/10/22 13:14:14;;;;;;;;;;;;;;;;;;6175093;23;19920;-88
2023/10/22 13:17:00;;;;;;;;;;;;;;;;;;6172469;23;20014;-87
2023/10/22 13:19:26;;;;;;;;;;;;;;;;;;6150062;23;19924;-86
2023/10/22 13:21:55;;;;;;;;;;;;;;;;;;6199422;23;19924;-87
2023/10/22 13:24:26;;;;;;;;;;;;;;;;;;6202215;23;19919;-86
2023/10/22 13:26:53;;;;;;;;;;;;;;;;;;6173305;23;19916;-88
2023/10/22 13:29:20;;;;;;;;;;;;;;;;;;6201717;23;19958;-87
2023/10/22 13:31:48;;;;;;;;;;;;;;;;;;6174447;23;19923;-89
2023/10/22 13:34:15;;;;;;;;;;;;;;;;;;6174737;23;19920;-89
2023/10/22 13:36:42;;;;;;;;;;;;;;;;;;6149761;23;20030;-88
2023/10/22 13:39:11;;;;;;;;;;;;;;;;;;6201352;23;20034;-88
2023/10/22 13:41:40;;;;;;;;;;;;;;;;;;6171564;23;19931;-87
2023/10/22 13:44:10;;;;;;;;;;;;;;;;;;6173016;23;20346;-88
2023/10/22 14:06:35;;;;;;;;;;;;;;;;;;;;;
2023/10/22 14:19:42;;;;;;;;;;;;;;;;;;;;;
2023/10/22 14:25:56;;;;;;;;;;;;;;;;;;5883435;24;20003;-88
2023/10/22 14:47:18;;;;;;;;;;;;;;;;;;5970451;23;20265;-92
2023/10/22 14:49:44;;;;;;;;;;;;;;;;;;6151383;23;20022;-92
2023/10/22 14:52:10;;;;;;;;;;;;;;;;;;6174245;23;19927;-91
2023/10/22 14:54:36;;;;;;;;;;;;;;;;;;6149953;23;20014;-91
2023/10/22 14:57:02;;;;;;;;;;;;;;;;;;6148003;23;19944;-91
2023/10/22 14:59:28;;;;;;;;;;;;;;;;;;6175101;23;19934;-91
2023/10/22 15:01:55;;;;;;;;;;;;;;;;;;6170078;23;20022;-91
2023/10/22 15:04:21;;;;;;;;;;;;;;;;;;6176496;23;19962;-90
2023/10/22 15:06:47;;;;;;;;;;;;;;;;;;6143314;23;20318;-91
2023/10/22 15:09:13;;;;;;;;;;;;;;;;;;6149368;23;20312;-90
2023/10/22 15:11:39;;;;;;;;;;;;;;;;;;6150058;23;19916;-91
2023/10/22 15:14:05;;;;;;;;;;;;;;;;;;6172866;23;19920;-91
2023/10/22 15:16:31;;;;;;;;;;;;;;;;;;6149960;23;20410;-92
2023/10/22 15:18:57;;;;;;;;;;;;;;;;;;6173303;23;19924;-91
2023/10/22 15:21:24;;;;;;;;;;;;;;;;;;6202363;23;20324;-90
2023/10/22 15:23:51;;;;;;;;;;;;;;;;;;6174335;23;19966;-90
2023/10/22 15:26:17;;;;;;;;;;;;;;;;;;6173490;23;20349;-91
2023/10/22 15:28:44;;;;;;;;;;;;;;;;;;6172834;23;19920;-91
2023/10/22 15:31:09;;;;;;;;;;;;;;;;;;6175971;23;19920;-91
2023/10/22 15:33:36;;;;;;;;;;;;;;;;;;6173197;23;19919;-91
2023/10/22 15:36:02;;;;;;;;;;;;;;;;;;6148708;23;19927;-91
2023/10/22 15:38:28;;;;;;;;;;;;;;;;;;6150161;23;19916;-92
2023/10/22 15:40:54;;;;;;;;;;;;;;;;;;6172818;23;20047;-94
2023/10/22 15:43:20;;;;;;;;;;;;;;;;;;6173997;23;20306;-90
2023/10/22 15:45:48;;;;;;;;;;;;;;;;;;6144916;23;19924;-92
2023/10/22 15:48:14;;;;;;;;;;;;;;;;;;6201135;23;19931;-92
2023/10/22 15:50:40;;;;;;;;;;;;;;;;;;6145849;23;19919;-93
2023/10/22 15:53:06;;;;;;;;;;;;;;;;;;6175791;23;19948;-94
2023/10/22 15:55:32;;;;;;;;;;;;;;;;;;6183035;23;19952;-91
2023/10/22 15:57:59;;;;;;;;;;;;;;;;;;6188428;23;19924;-91
2023/10/22 16:00:26;;;;;;;;;;;;;;;;;;6176804;23;19962;-92
2023/10/22 16:02:54;;;;;;;;;;;;;;;;;;6147113;23;20249;-92
2023/10/22 16:05:20;;;;;;;;;;;;;;;;;;6148702;23;19962;-91
2023/10/22 16:07:46;;;;;;;;;;;;;;;;;;6147908;23;19990;-92
2023/10/22 16:10:12;;;;;;;;;;;;;;;;;;6174836;23;20313;-90
2023/10/22 16:12:39;;;;;;;;;;;;;;;;;;6176414;23;19920;-91
2023/10/22 16:15:05;;;;;;;;;;;;;;;;;;6148287;23;20214;-91
2023/10/22 16:17:31;;;;;;;;;;;;;;;;;;6174790;23;19930;-92
2023/10/22 16:19:57;;;;;;;;;;;;;;;;;;6199653;23;19920;-91
2023/10/22 16:22:23;;;;;;;;;;;;;;;;;;6151884;23;20300;-92
2023/10/22 16:24:49;;;;;;;;;;;;;;;;;;6149564;23;19966;-91
2023/10/22 16:27:15;;;;;;;;;;;;;;;;;;6176922;23;19962;-92
2023/10/22 16:29:40;;;;;;;;;;;;;;;;;;6148845;23;20431;-91
2023/10/22 16:32:06;;;;;;;;;;;;;;;;;;6150437;23;19926;-91
2023/10/22 16:34:32;;;;;;;;;;;;;;;;;;6151692;23;19920;-91
2023/10/22 16:36:58;;;;;;;;;;;;;;;;;;6173016;23;19966;-92
2023/10/22 16:39:26;;;;;;;;;;;;;;;;;;6175210;23;19920;-91
2023/10/22 16:41:52;;;;;;;;;;;;;;;;;;6172086;23;19930;-90
2023/10/22 16:44:18;;;;;;;;;;;;;;;;;;6177032;23;19943;-92
2023/10/22 16:46:44;;;;;;;;;;;;;;;;;;6147074;23;20333;-92
2023/10/22 16:49:11;;;;;;;;;;;;;;;;;;6150126;23;20288;-89
2023/10/22 16:51:37;;;;;;;;;;;;;;;;;;6172479;23;20014;-91
2023/10/22 16:54:03;;;;;;;;;;;;;;;;;;6171469;23;20376;-90
2023/10/22 16:56:30;;;;;;;;;;;;;;;;;;6171967;23;20306;-90
2023/10/22 16:58:56;;;;;;;;;;;;;;;;;;6174033;23;19920;-90
2023/10/22 17:01:22;;;;;;;;;;;;;;;;;;6176010;23;20399;-89
2023/10/22 17:03:48;;;;;;;;;;;;;;;;;;6173832;23;20399;-90
2023/10/22 17:06:16;;;;;;;;;;;;;;;;;;6172982;23;19920;-94
2023/10/22 17:08:42;;;;;;;;;;;;;;;;;;6148664;23;19919;-92
2023/10/22 17:11:08;;;;;;;;;;;;;;;;;;6147539;23;20265;-90
2023/10/22 17:13:34;;;;;;;;;;;;;;;;;;6148628;23;19920;-90
2023/10/22 17:16:00;;;;;;;;;;;;;;;;;;6172640;23;19920;-91
2023/10/22 17:18:26;;;;;;;;;;;;;;;;;;6176274;23;19927;-90
2023/10/22 17:20:52;;;;;;;;;;;;;;;;;;6171053;23;19970;-90
2023/10/22 17:23:19;;;;;;;;;;;;;;;;;;6149128;23;19920;-90
2023/10/22 17:25:44;;;;;;;;;;;;;;;;;;6147017;23;19927;-89
2023/10/22 17:28:12;;;;;;;;;;;;;;;;;;6175348;23;19994;-89
2023/10/22 17:30:38;;;;;;;;;;;;;;;;;;6150575;23;19920;-89
2023/10/22 17:33:04;;;;;;;;;;;;;;;;;;6145493;23;20348;-90
2023/10/22 17:35:30;;;;;;;;;;;;;;;;;;6202145;23;19946;-90
2023/10/22 17:37:56;;;;;;;;;;;;;;;;;;6147383;23;20680;-90
2023/10/22 17:40:22;;;;;;;;;;;;;;;;;;6174074;23;20416;-90
2023/10/22 17:42:48;;;;;;;;;;;;;;;;;;6144841;23;20720;-90
2023/10/22 17:45:14;;;;;;;;;;;;;;;;;;6173335;23;19926;-90